RJOS(METAR)
08/15 04:00
METAR RJOS 141900Z 29004KT 9999 FEW002 SCT/// 27/24 Q1008 RMK 2ST002
A2979=
戻る
トップページへ戻る
IMOC Co,.Ltd.